createdAt,value
2022-11-20T00:04:52.768Z,91.50
2022-11-20T00:09:54.382Z,92.31
2022-11-20T00:14:56.020Z,92.66
2022-11-20T00:19:57.705Z,91.59
2022-11-20T00:24:59.347Z,91.10
2022-11-20T00:30:01.054Z,92.33
2022-11-20T00:35:02.686Z,92.42
2022-11-20T00:40:04.778Z,92.81
2022-11-20T00:45:06.771Z,91.95
2022-11-20T00:50:08.848Z,92.37
2022-11-20T00:55:10.455Z,92.33
2022-11-20T01:00:12.282Z,92.50
2022-11-20T01:05:14.046Z,92.99
2022-11-20T01:10:15.747Z,93.12
2022-11-20T01:15:17.440Z,93.17
2022-11-20T01:20:19.052Z,93.00
2022-11-20T01:25:20.675Z,93.08
2022-11-20T01:30:22.341Z,91.18
2022-11-20T01:35:24.004Z,89.80
2022-11-20T01:40:25.670Z,90.91
2022-11-20T01:46:00.865Z,91.63
2022-11-20T01:51:05.042Z,92.51
2022-11-20T01:56:11.163Z,92.97
2022-11-20T02:01:14.110Z,93.38
2022-11-20T02:06:28.929Z,93.18
2022-11-20T02:11:31.732Z,91.32
2022-11-20T02:16:39.550Z,90.97
2022-11-20T02:21:54.517Z,90.68
2022-11-20T02:27:01.476Z,91.95
2022-11-20T02:32:04.132Z,91.28
2022-11-20T02:37:05.827Z,89.74
2022-11-20T02:42:07.479Z,89.94
2022-11-20T02:47:09.451Z,89.45
2022-11-20T02:52:11.135Z,90.26
2022-11-20T02:57:12.788Z,88.88
2022-11-20T03:02:14.462Z,88.66
2022-11-20T03:07:16.820Z,87.88
2022-11-20T03:12:18.490Z,89.21
2022-11-20T03:17:20.373Z,89.08
2022-11-20T03:22:22.007Z,88.77
2022-11-20T03:27:23.619Z,89.18
2022-11-20T03:32:25.226Z,88.63
2022-11-20T03:37:26.839Z,88.80
2022-11-20T03:42:46.472Z,88.97
2022-11-20T03:47:48.154Z,89.09
2022-11-20T03:52:49.779Z,90.65
2022-11-20T03:57:51.409Z,91.00
2022-11-20T04:02:52.991Z,90.63
2022-11-20T04:07:54.828Z,91.57
2022-11-20T04:12:56.451Z,92.09
2022-11-20T04:17:58.051Z,91.85
2022-11-20T04:22:59.690Z,91.52
2022-11-20T04:28:01.377Z,89.50
2022-11-20T04:33:03.006Z,89.08
2022-11-20T04:38:05.247Z,88.95
2022-11-20T04:43:06.903Z,89.18
2022-11-20T04:48:08.565Z,90.13
2022-11-20T04:53:10.216Z,88.69
2022-11-20T04:58:12.218Z,89.23
2022-11-20T05:03:13.914Z,90.00
2022-11-20T05:08:15.582Z,89.95
2022-11-20T05:13:17.187Z,88.12
2022-11-20T05:18:18.920Z,89.50
2022-11-20T05:23:20.544Z,91.16
2022-11-20T05:28:23.088Z,88.92
2022-11-20T05:33:24.650Z,90.08
2022-11-20T05:38:26.313Z,91.23
2022-11-20T05:43:28.012Z,89.45
2022-11-20T05:48:29.823Z,89.86
2022-11-20T05:53:32.801Z,89.07
2022-11-20T05:58:35.101Z,89.47
2022-11-20T06:03:37.204Z,90.83
2022-11-20T06:08:38.892Z,91.35
2022-11-20T06:13:42.615Z,91.44
2022-11-20T06:18:44.756Z,91.77
2022-11-20T06:23:47.644Z,91.80
2022-11-20T06:28:50.400Z,88.91
2022-11-20T06:33:52.302Z,87.51
2022-11-20T06:38:53.918Z,88.98
2022-11-20T06:43:56.840Z,89.15
2022-11-20T06:48:59.308Z,89.59
2022-11-20T06:54:02.006Z,89.45
2022-11-20T06:59:08.230Z,90.37
2022-11-20T07:04:09.864Z,90.86
2022-11-20T07:09:12.983Z,90.48
2022-11-20T07:14:14.788Z,90.21
2022-11-20T07:19:16.664Z,90.51
2022-11-20T07:24:18.429Z,91.14
2022-11-20T07:29:20.772Z,91.03
2022-11-20T07:34:22.617Z,90.70
2022-11-20T07:39:24.365Z,90.69
2022-11-20T07:44:26.026Z,90.70
2022-11-20T07:49:27.959Z,91.04
2022-11-20T07:54:29.720Z,90.94
2022-11-20T07:59:31.369Z,89.72
2022-11-20T08:04:34.302Z,89.59
2022-11-20T08:09:35.956Z,89.38
2022-11-20T08:14:37.646Z,87.65
2022-11-20T08:19:39.288Z,86.69
2022-11-20T08:24:40.966Z,86.03
2022-11-20T08:29:42.724Z,86.15
2022-11-20T08:34:44.390Z,86.17
2022-11-20T08:39:46.075Z,85.76
2022-11-20T08:44:48.055Z,81.84
2022-11-20T08:49:49.719Z,79.18
2022-11-20T08:54:51.427Z,78.20
2022-11-20T09:00:09.298Z,77.59
2022-11-20T09:05:11.259Z,78.32
2022-11-20T09:10:28.411Z,77.76
2022-11-20T09:15:30.147Z,75.93
2022-11-20T09:20:32.200Z,72.97
2022-11-20T09:25:34.001Z,74.63
2022-11-20T09:30:35.793Z,74.46
2022-11-20T09:35:37.457Z,75.11
2022-11-20T09:40:52.773Z,73.75
2022-11-20T09:46:30.071Z,75.36
2022-11-20T09:51:53.691Z,74.57
2022-11-20T09:57:00.690Z,76.27
2022-11-20T10:02:07.623Z,76.03
2022-11-20T10:07:36.024Z,74.15
2022-11-20T10:13:28.841Z,75.30
2022-11-20T10:18:49.121Z,73.81
2022-11-20T10:24:15.515Z,74.33
2022-11-20T10:29:19.487Z,72.66
2022-11-20T10:34:45.786Z,73.38
2022-11-20T10:40:30.027Z,72.38
2022-11-20T10:45:45.360Z,73.68
2022-11-20T10:51:28.732Z,72.13
2022-11-20T10:56:53.357Z,70.99
2022-11-20T11:01:55.070Z,66.27
2022-11-20T11:07:05.795Z,66.11
2022-11-20T11:12:09.943Z,70.55
2022-11-20T11:17:33.522Z,72.68
2022-11-20T11:22:46.425Z,74.54
2022-11-20T11:27:49.469Z,72.15
2022-11-20T11:32:51.657Z,72.75
2022-11-20T11:38:24.900Z,76.94
2022-11-20T11:43:49.130Z,75.15
2022-11-20T11:49:17.231Z,74.98
2022-11-20T11:54:25.041Z,73.63
2022-11-20T12:00:10.973Z,74.16
2022-11-20T12:05:37.304Z,74.54
2022-11-20T12:10:46.259Z,75.07
2022-11-20T12:15:49.158Z,76.42
2022-11-20T12:21:06.509Z,77.11
2022-11-20T12:26:57.197Z,77.72
2022-11-20T12:32:16.752Z,80.02
2022-11-20T12:37:36.760Z,81.43
2022-11-20T12:43:02.871Z,79.75
2022-11-20T12:48:19.905Z,81.92
2022-11-20T12:53:58.950Z,82.24
2022-11-20T12:59:26.667Z,82.41
2022-11-20T13:05:10.388Z,82.65
2022-11-20T13:10:31.680Z,83.60
2022-11-20T13:15:56.963Z,84.87
2022-11-20T13:20:59.058Z,84.71
2022-11-20T13:26:06.471Z,84.25
2022-11-20T13:31:26.486Z,81.98
2022-11-20T13:36:31.259Z,83.49
2022-11-20T13:41:39.068Z,83.84
2022-11-20T13:46:47.413Z,85.52
2022-11-20T13:51:52.269Z,86.81
2022-11-20T13:57:08.401Z,86.43
2022-11-20T14:02:17.136Z,85.39
2022-11-20T14:07:24.818Z,85.76
2022-11-20T14:12:32.049Z,84.88
2022-11-20T14:17:36.024Z,84.95
2022-11-20T14:22:37.639Z,85.43
2022-11-20T14:27:42.329Z,86.82
2022-11-20T14:32:46.086Z,86.86
2022-11-20T14:37:48.451Z,86.90
2022-11-20T14:42:50.489Z,87.35
2022-11-20T14:47:57.905Z,87.71
2022-11-20T14:53:01.280Z,88.77
2022-11-20T14:58:05.967Z,87.30
2022-11-20T15:03:17.191Z,89.28
2022-11-20T15:08:19.274Z,90.34
2022-11-20T15:13:35.505Z,89.91
2022-11-20T15:18:45.612Z,91.03
2022-11-20T15:23:47.941Z,91.38
2022-11-20T15:28:51.727Z,91.01
2022-11-20T15:33:53.429Z,91.34
2022-11-20T15:38:55.134Z,91.36
2022-11-20T15:43:56.835Z,91.21
2022-11-20T15:49:00.772Z,92.54
2022-11-20T15:54:14.018Z,93.46
2022-11-20T15:59:16.542Z,93.64
2022-11-20T16:04:19.329Z,94.50
2022-11-20T16:09:21.331Z,95.14
2022-11-20T16:14:41.530Z,95.86
2022-11-20T16:19:43.150Z,95.31
2022-11-20T16:24:44.781Z,95.89
2022-11-20T16:29:46.811Z,95.98
2022-11-20T16:34:48.766Z,97.03
2022-11-20T16:39:50.998Z,96.77
2022-11-20T16:44:52.686Z,97.54
2022-11-20T16:49:54.299Z,96.75
2022-11-20T16:54:56.235Z,96.52
2022-11-20T17:00:02.055Z,96.31
2022-11-20T17:05:04.697Z,96.50
2022-11-20T17:10:06.797Z,97.48
2022-11-20T17:15:08.896Z,97.94
2022-11-20T17:20:12.284Z,98.08
2022-11-20T17:25:14.697Z,98.42
2022-11-20T17:30:16.418Z,98.54
2022-11-20T17:35:18.037Z,99.23
2022-11-20T17:40:23.226Z,98.58
2022-11-20T17:45:28.706Z,97.72
2022-11-20T17:50:30.400Z,98.30
2022-11-20T17:55:55.613Z,97.10
2022-11-20T18:01:05.243Z,93.69
2022-11-20T18:06:22.305Z,90.38
2022-11-20T18:11:30.176Z,89.86
2022-11-20T18:16:36.315Z,89.91
2022-11-20T18:21:38.029Z,90.59
2022-11-20T18:26:44.052Z,92.07
2022-11-20T18:31:46.300Z,91.75
2022-11-20T18:36:48.087Z,92.75
2022-11-20T18:42:08.751Z,93.31
2022-11-20T18:47:14.952Z,94.77
2022-11-20T18:52:17.662Z,95.03
2022-11-20T18:57:21.823Z,95.86
2022-11-20T19:02:23.655Z,96.26
2022-11-20T19:07:25.762Z,97.51
2022-11-20T19:12:27.516Z,97.87
2022-11-20T19:17:29.444Z,97.98
2022-11-20T19:22:31.401Z,98.83
2022-11-20T19:27:33.815Z,98.61
2022-11-20T19:32:35.857Z,99.77
2022-11-20T19:37:41.077Z,100.00
2022-11-20T19:42:43.084Z,98.61
2022-11-20T19:48:06.553Z,98.31
2022-11-20T19:53:08.016Z,98.85
2022-11-20T19:58:09.651Z,99.68
2022-11-20T20:03:11.335Z,99.79
2022-11-20T20:08:16.961Z,99.53
2022-11-20T20:13:18.985Z,99.06
2022-11-20T20:18:20.966Z,98.15
2022-11-20T20:23:22.795Z,99.57
2022-11-20T20:28:24.689Z,100.00
2022-11-20T20:33:26.343Z,100.00
2022-11-20T20:38:28.081Z,100.00
2022-11-20T20:43:29.968Z,100.00
2022-11-20T20:48:31.690Z,100.00
2022-11-20T20:53:34.116Z,100.00
2022-11-20T20:58:36.403Z,100.00
2022-11-20T21:03:38.769Z,100.00
2022-11-20T21:08:43.513Z,100.00
2022-11-20T21:13:47.529Z,100.00
2022-11-20T21:18:49.405Z,100.00
2022-11-20T21:23:52.092Z,100.00
2022-11-20T21:28:53.892Z,100.00
2022-11-20T21:33:56.738Z,100.00
2022-11-20T21:38:59.497Z,99.60
2022-11-20T21:49:25.916Z,100.00
2022-11-20T21:54:27.802Z,100.00
2022-11-20T21:59:29.408Z,98.64
2022-11-20T22:04:31.025Z,98.36
2022-11-20T22:09:32.659Z,96.08
2022-11-20T22:14:34.276Z,94.55
2022-11-20T22:19:35.850Z,96.04
2022-11-20T22:24:37.478Z,98.26
2022-11-20T22:29:39.086Z,98.20
2022-11-20T22:34:40.674Z,98.42
2022-11-20T22:39:42.297Z,98.44
2022-11-20T22:44:43.887Z,98.79
2022-11-20T22:49:45.496Z,97.53
2022-11-20T22:54:47.119Z,98.11
2022-11-20T22:59:48.790Z,97.77
2022-11-20T23:04:50.474Z,100.00
2022-11-20T23:09:52.095Z,100.00
2022-11-20T23:14:53.713Z,100.00
2022-11-20T23:19:55.343Z,100.00
2022-11-20T23:24:57.038Z,100.00
2022-11-20T23:29:59.240Z,100.00
2022-11-20T23:35:00.893Z,100.00
2022-11-20T23:40:03.283Z,100.00
2022-11-20T23:45:05.225Z,100.00
2022-11-20T23:50:07.051Z,100.00
2022-11-20T23:55:08.818Z,100.00
